createdAt,value
2023-01-20T00:01:31.025Z,-0.85
2023-01-20T00:03:58.362Z,-0.86
2023-01-20T00:06:27.745Z,-0.89
2023-01-20T00:09:00.269Z,-0.90
2023-01-20T00:11:27.859Z,-0.92
2023-01-20T00:13:55.846Z,-0.86
2023-01-20T00:16:22.983Z,-0.90
2023-01-20T00:18:49.441Z,-0.97
2023-01-20T00:21:18.538Z,-0.96
2023-01-20T00:23:46.177Z,-1.00
2023-01-20T00:26:16.075Z,-1.03
2023-01-20T00:28:43.382Z,-1.03
2023-01-20T00:31:21.005Z,-1.03
2023-01-20T00:33:49.137Z,-1.04
2023-01-20T00:36:17.281Z,-1.05
2023-01-20T00:38:44.139Z,-1.10
2023-01-20T00:41:10.669Z,-1.15
2023-01-20T00:43:37.402Z,-1.18
2023-01-20T00:46:05.199Z,-1.16
2023-01-20T00:48:32.544Z,-1.19
2023-01-20T00:50:59.219Z,-1.17
2023-01-20T00:53:25.966Z,-1.15
2023-01-20T00:55:52.624Z,-1.21
2023-01-20T00:58:19.063Z,-1.18
2023-01-20T01:00:52.783Z,-1.17
2023-01-20T01:03:19.327Z,-1.15
2023-01-20T01:05:46.068Z,-1.08
2023-01-20T01:08:13.154Z,-1.10
2023-01-20T01:10:40.783Z,-1.12
2023-01-20T01:13:08.059Z,-1.10
2023-01-20T01:15:34.543Z,-1.05
2023-01-20T01:18:03.185Z,-1.07
2023-01-20T01:20:29.782Z,-1.10
2023-01-20T01:22:56.349Z,-1.16
2023-01-20T01:25:22.921Z,-1.10
2023-01-20T01:27:49.366Z,-1.09
2023-01-20T01:30:15.837Z,-1.12
2023-01-20T01:32:42.367Z,-1.12
2023-01-20T01:35:09.055Z,-1.07
2023-01-20T01:37:35.533Z,-1.00
2023-01-20T01:40:02.429Z,-1.00
2023-01-20T01:42:29.342Z,-1.01
2023-01-20T01:45:11.669Z,-1.04
2023-01-20T01:47:42.587Z,-1.01
2023-01-20T01:50:13.543Z,-1.02
2023-01-20T01:52:44.369Z,-0.98
2023-01-20T01:55:11.792Z,-1.02
2023-01-20T01:57:38.445Z,-0.85
2023-01-20T02:00:07.112Z,-0.84
2023-01-20T02:02:41.390Z,-0.98
2023-01-20T02:05:08.371Z,-1.05
2023-01-20T02:07:36.124Z,-1.03
2023-01-20T02:10:03.274Z,-1.07
2023-01-20T02:12:29.813Z,-1.08
2023-01-20T02:15:02.053Z,-1.13
2023-01-20T02:17:47.042Z,-1.16
2023-01-20T02:20:37.072Z,-1.15
2023-01-20T02:23:03.482Z,-1.27
2023-01-20T02:26:07.629Z,-1.33
2023-01-20T02:29:20.141Z,-1.25
2023-01-20T02:32:04.518Z,-1.18
2023-01-20T02:34:40.351Z,-1.14
2023-01-20T02:37:13.531Z,-1.04
2023-01-20T02:40:00.481Z,-1.10
2023-01-20T02:42:39.450Z,-1.15
2023-01-20T02:45:18.289Z,-1.23
2023-01-20T02:48:44.311Z,-1.24
2023-01-20T02:51:21.587Z,-1.29
2023-01-20T02:53:52.283Z,-1.30
2023-01-20T02:56:22.963Z,-1.35
2023-01-20T02:58:54.088Z,-1.35
2023-01-20T03:01:26.460Z,-1.46
2023-01-20T03:03:58.217Z,-1.42
2023-01-20T03:06:30.163Z,-1.55
2023-01-20T03:08:59.794Z,-1.63
2023-01-20T03:11:26.961Z,-1.66
2023-01-20T03:14:02.554Z,-1.76
2023-01-20T03:16:30.179Z,-1.82
2023-01-20T03:18:56.684Z,-1.86
2023-01-20T03:21:23.802Z,-1.89
2023-01-20T03:23:57.490Z,-1.90
2023-01-20T03:26:23.973Z,-1.94
2023-01-20T03:28:50.539Z,-1.99
2023-01-20T03:31:34.699Z,-2.00
2023-01-20T03:34:06.459Z,-2.06
2023-01-20T03:36:34.121Z,-2.08
2023-01-20T03:39:01.066Z,-2.10
2023-01-20T03:41:45.016Z,-2.09
2023-01-20T03:44:19.003Z,-2.12
2023-01-20T03:47:08.601Z,-2.09
2023-01-20T03:49:38.091Z,-2.08
2023-01-20T03:52:13.503Z,-2.11
2023-01-20T03:54:52.324Z,-2.09
2023-01-20T03:57:24.927Z,-2.08
2023-01-20T03:59:52.709Z,-2.07
2023-01-20T04:02:20.836Z,-2.07
2023-01-20T04:04:49.480Z,-2.11
2023-01-20T04:07:22.675Z,-2.09
2023-01-20T04:09:54.252Z,-2.08
2023-01-20T04:12:20.673Z,-2.06
2023-01-20T04:14:47.145Z,-1.99
2023-01-20T04:17:13.897Z,-1.98
2023-01-20T04:19:40.366Z,-2.03
2023-01-20T04:22:20.124Z,-1.99
2023-01-20T04:25:20.555Z,-1.93
2023-01-20T04:27:46.990Z,-1.93
2023-01-20T04:30:14.283Z,-1.87
2023-01-20T04:32:40.880Z,-1.84
2023-01-20T04:35:07.549Z,-1.82
2023-01-20T04:37:34.072Z,-1.77
2023-01-20T04:40:00.458Z,-1.71
2023-01-20T04:42:28.179Z,-1.62
2023-01-20T04:44:54.586Z,-1.62
2023-01-20T04:47:20.997Z,-1.59
2023-01-20T04:49:47.393Z,-1.56
2023-01-20T04:52:13.944Z,-1.52
2023-01-20T04:54:40.371Z,-1.51
2023-01-20T04:57:06.982Z,-1.52
2023-01-20T04:59:33.516Z,-1.50
2023-01-20T05:02:00.047Z,-1.44
2023-01-20T05:04:26.472Z,-1.40
2023-01-20T05:06:52.902Z,-1.37
2023-01-20T05:09:19.415Z,-1.34
2023-01-20T05:11:45.824Z,-1.34
2023-01-20T05:14:13.472Z,-1.33
2023-01-20T05:16:39.973Z,-1.28
2023-01-20T05:19:06.493Z,-1.29
2023-01-20T05:21:33.341Z,-1.27
2023-01-20T05:23:59.766Z,-1.23
2023-01-20T05:26:26.363Z,-1.16
2023-01-20T05:28:53.131Z,-1.10
2023-01-20T05:31:19.637Z,-1.06
2023-01-20T05:33:46.202Z,-1.02
2023-01-20T05:36:12.823Z,-1.00
2023-01-20T05:38:39.885Z,-0.98
2023-01-20T05:41:08.466Z,-0.95
2023-01-20T05:43:34.974Z,-0.95
2023-01-20T05:46:03.518Z,-0.89
2023-01-20T05:48:30.134Z,-0.88
2023-01-20T05:50:56.578Z,-0.88
2023-01-20T05:53:23.711Z,-0.83
2023-01-20T05:55:50.147Z,-0.81
2023-01-20T05:58:16.640Z,-0.77
2023-01-20T06:00:43.112Z,-0.76
2023-01-20T06:03:09.615Z,-0.77
2023-01-20T06:05:36.093Z,-0.75
2023-01-20T06:08:02.510Z,-0.77
2023-01-20T06:10:28.957Z,-0.75
2023-01-20T06:12:55.905Z,-0.72
2023-01-20T06:15:23.892Z,-0.78
2023-01-20T06:17:51.138Z,-0.75
2023-01-20T06:20:18.368Z,-0.72
2023-01-20T06:22:45.006Z,-0.71
2023-01-20T06:25:11.506Z,-0.68
2023-01-20T06:27:38.028Z,-0.65
2023-01-20T06:30:06.179Z,-0.63
2023-01-20T06:32:32.608Z,-0.63
2023-01-20T06:34:59.009Z,-0.64
2023-01-20T06:37:25.456Z,-0.65
2023-01-20T06:39:51.861Z,-0.62
2023-01-20T06:42:18.308Z,-0.64
2023-01-20T06:44:44.716Z,-0.64
2023-01-20T06:47:11.316Z,-0.68
2023-01-20T06:49:37.831Z,-0.63
2023-01-20T06:52:04.323Z,-0.64
2023-01-20T06:54:30.875Z,-0.63
2023-01-20T06:56:57.332Z,-0.59
2023-01-20T06:59:23.714Z,-0.63
2023-01-20T07:01:50.620Z,-0.63
2023-01-20T07:04:17.047Z,-0.57
2023-01-20T07:06:43.597Z,-0.55
2023-01-20T07:09:12.002Z,-0.54
2023-01-20T07:11:38.955Z,-0.56
2023-01-20T07:14:06.833Z,-0.55
2023-01-20T07:16:34.299Z,-0.56
2023-01-20T07:19:00.811Z,-0.58
2023-01-20T07:21:28.608Z,-0.57
2023-01-20T07:23:55.594Z,-0.57
2023-01-20T07:26:26.315Z,-0.57
2023-01-20T07:28:52.818Z,-0.58
2023-01-20T07:31:22.335Z,-0.57
2023-01-20T07:33:49.600Z,-0.56
2023-01-20T07:36:16.783Z,-0.58
2023-01-20T07:38:46.544Z,-0.58
2023-01-20T07:41:16.347Z,-0.60
2023-01-20T07:43:44.389Z,-0.58
2023-01-20T07:46:11.730Z,-0.62
2023-01-20T07:48:39.668Z,-0.60
2023-01-20T07:51:09.079Z,-0.56
2023-01-20T07:53:39.166Z,-0.54
2023-01-20T07:56:07.608Z,-0.50
2023-01-20T07:58:34.942Z,-0.49
2023-01-20T08:01:28.871Z,-0.48
2023-01-20T08:03:56.254Z,-0.49
2023-01-20T08:06:24.791Z,-0.48
2023-01-20T08:08:51.716Z,-0.47
2023-01-20T08:11:20.635Z,-0.45
2023-01-20T08:13:47.061Z,-0.44
2023-01-20T08:16:15.819Z,-0.39
2023-01-20T08:18:42.866Z,-0.36
2023-01-20T08:21:18.543Z,-0.31
2023-01-20T08:23:45.051Z,-0.29
2023-01-20T08:26:11.608Z,-0.25
2023-01-20T08:28:38.069Z,-0.21
2023-01-20T08:31:12.842Z,-0.15
2023-01-20T08:33:42.434Z,-0.10
2023-01-20T08:36:13.830Z,-0.04
2023-01-20T08:38:41.398Z,-0.02
2023-01-20T08:41:09.742Z,0.02
2023-01-20T08:43:36.456Z,0.05
2023-01-20T08:46:06.993Z,0.08
2023-01-20T08:48:35.170Z,0.13
2023-01-20T08:51:09.937Z,0.10
2023-01-20T08:53:36.524Z,0.13
2023-01-20T08:56:04.457Z,0.15
2023-01-20T08:58:31.419Z,0.10
2023-01-20T09:00:58.314Z,0.08
2023-01-20T09:03:25.074Z,0.14
2023-01-20T09:05:51.645Z,0.05
2023-01-20T09:08:19.417Z,-0.02
2023-01-20T09:10:46.454Z,0.02
2023-01-20T09:13:13.003Z,0.00
2023-01-20T09:15:39.522Z,0.01
2023-01-20T09:18:06.171Z,-0.03
2023-01-20T09:20:32.962Z,-0.01
2023-01-20T09:23:03.251Z,0.10
2023-01-20T09:25:29.769Z,0.16
2023-01-20T09:27:56.187Z,0.18
2023-01-20T09:30:22.667Z,0.17
2023-01-20T09:32:53.024Z,0.23
2023-01-20T09:35:19.507Z,0.21
2023-01-20T09:38:04.432Z,0.24
2023-01-20T09:41:07.229Z,0.31
2023-01-20T09:43:55.188Z,0.36
2023-01-20T09:46:31.420Z,0.32
2023-01-20T09:49:24.442Z,0.33
2023-01-20T09:52:31.469Z,0.34
2023-01-20T09:55:15.712Z,0.31
2023-01-20T09:57:48.822Z,0.37
2023-01-20T10:00:21.807Z,0.47
2023-01-20T10:02:52.907Z,0.55
2023-01-20T10:05:32.864Z,0.55
2023-01-20T10:08:07.032Z,0.53
2023-01-20T10:10:43.134Z,0.54
2023-01-20T10:13:20.261Z,0.59
2023-01-20T10:15:57.047Z,0.63
2023-01-20T10:18:30.005Z,0.74
2023-01-20T10:21:12.368Z,0.81
2023-01-20T10:23:52.217Z,0.89
2023-01-20T10:26:31.993Z,0.91
2023-01-20T10:29:03.959Z,0.92
2023-01-20T10:31:38.692Z,0.83
2023-01-20T10:34:15.790Z,0.95
2023-01-20T10:36:45.968Z,1.05
2023-01-20T10:39:27.227Z,1.14
2023-01-20T10:42:17.906Z,1.18
2023-01-20T10:44:46.616Z,1.21
2023-01-20T10:47:29.496Z,1.17
2023-01-20T10:50:23.743Z,1.17
2023-01-20T10:52:50.534Z,1.22
2023-01-20T10:55:28.222Z,1.27
2023-01-20T10:58:00.481Z,1.29
2023-01-20T11:00:33.391Z,1.33
2023-01-20T11:03:02.376Z,1.33
2023-01-20T11:05:38.061Z,1.32
2023-01-20T11:08:26.639Z,1.40
2023-01-20T11:10:56.712Z,1.43
2023-01-20T11:13:23.252Z,1.41
2023-01-20T11:15:53.501Z,1.56
2023-01-20T11:18:26.395Z,1.53
2023-01-20T11:21:05.595Z,1.58
2023-01-20T11:23:45.995Z,1.50
2023-01-20T11:26:32.389Z,1.46
2023-01-20T11:29:00.083Z,1.48
2023-01-20T11:31:41.243Z,1.56
2023-01-20T11:34:33.801Z,1.67
2023-01-20T11:37:03.375Z,1.69
2023-01-20T11:39:35.158Z,1.59
2023-01-20T11:42:16.072Z,1.61
2023-01-20T11:44:50.365Z,1.60
2023-01-20T11:47:24.991Z,1.63
2023-01-20T11:50:03.915Z,1.52
2023-01-20T11:52:33.813Z,1.48
2023-01-20T11:55:10.759Z,1.38
2023-01-20T11:57:38.972Z,1.35
2023-01-20T12:00:30.268Z,1.42
2023-01-20T12:03:00.460Z,1.42
2023-01-20T12:05:53.966Z,1.48
2023-01-20T12:08:25.062Z,1.51
2023-01-20T12:10:52.068Z,1.52
2023-01-20T12:13:22.949Z,1.51
2023-01-20T12:15:54.988Z,1.55
2023-01-20T12:18:36.967Z,1.56
2023-01-20T12:21:11.596Z,1.59
2023-01-20T12:23:48.464Z,1.57
2023-01-20T12:26:20.973Z,1.62
2023-01-20T12:29:14.699Z,1.67
2023-01-20T12:31:41.127Z,1.70
2023-01-20T12:34:16.156Z,1.73
2023-01-20T12:37:10.211Z,1.77
2023-01-20T12:39:58.137Z,1.82
2023-01-20T12:42:48.764Z,1.79
2023-01-20T12:45:24.109Z,1.90
2023-01-20T12:48:12.716Z,1.86
2023-01-20T12:50:54.962Z,1.93
2023-01-20T12:53:27.218Z,1.95
2023-01-20T12:56:28.509Z,1.98
2023-01-20T12:59:17.308Z,1.93
2023-01-20T13:02:05.650Z,1.92
2023-01-20T13:05:09.081Z,1.93
2023-01-20T13:07:50.847Z,1.98
2023-01-20T13:10:36.985Z,1.92
2023-01-20T13:13:12.258Z,1.96
2023-01-20T13:15:46.034Z,1.85
2023-01-20T13:18:21.965Z,1.87
2023-01-20T13:20:49.110Z,1.85
2023-01-20T13:23:20.468Z,1.88
2023-01-20T13:25:47.505Z,1.85
2023-01-20T13:28:20.920Z,1.77
2023-01-20T13:30:54.119Z,1.78
2023-01-20T13:33:40.112Z,1.78
2023-01-20T13:36:14.698Z,1.77
2023-01-20T13:38:41.119Z,1.78
2023-01-20T13:41:09.993Z,1.82
2023-01-20T13:43:46.831Z,1.78
2023-01-20T13:46:15.022Z,1.77
2023-01-20T13:49:23.147Z,1.78
2023-01-20T13:51:49.602Z,1.75
2023-01-20T13:54:25.172Z,1.76
2023-01-20T13:56:52.480Z,1.81
2023-01-20T13:59:18.878Z,1.82
2023-01-20T14:01:45.294Z,1.82
2023-01-20T14:04:19.536Z,1.80
2023-01-20T14:06:51.841Z,1.79
2023-01-20T14:09:23.831Z,1.77
2023-01-20T14:11:52.474Z,1.77
2023-01-20T14:14:28.513Z,1.78
2023-01-20T14:16:57.208Z,1.76
2023-01-20T14:19:29.838Z,1.74
2023-01-20T14:22:04.687Z,1.74
2023-01-20T14:24:37.169Z,1.72
2023-01-20T14:27:23.386Z,1.72
2023-01-20T14:29:51.957Z,1.69
2023-01-20T14:32:28.570Z,1.70
2023-01-20T14:34:56.014Z,1.70
2023-01-20T14:37:25.088Z,1.69
2023-01-20T14:39:51.983Z,1.72
2023-01-20T14:42:21.167Z,1.80
2023-01-20T14:44:49.254Z,1.74
2023-01-20T14:47:16.090Z,1.69
2023-01-20T14:49:43.542Z,1.66
2023-01-20T14:52:21.486Z,1.70
2023-01-20T14:54:51.931Z,1.69
2023-01-20T14:57:40.732Z,1.69
2023-01-20T15:00:16.978Z,1.82
2023-01-20T15:02:55.032Z,1.79
2023-01-20T15:05:33.990Z,1.88
2023-01-20T15:08:26.067Z,1.74
2023-01-20T15:11:21.549Z,1.76
2023-01-20T15:14:00.726Z,1.67
2023-01-20T15:16:41.712Z,1.66
2023-01-20T15:19:34.632Z,1.60
2023-01-20T15:22:17.341Z,1.61
2023-01-20T15:24:47.223Z,1.57
2023-01-20T15:27:23.505Z,1.53
2023-01-20T15:30:13.011Z,1.51
2023-01-20T15:32:40.397Z,1.48
2023-01-20T15:35:07.244Z,1.46
2023-01-20T15:37:33.728Z,1.48
2023-01-20T15:40:00.209Z,1.55
2023-01-20T15:42:27.178Z,1.49
2023-01-20T15:44:53.681Z,1.42
2023-01-20T15:47:26.013Z,1.42
2023-01-20T15:49:52.519Z,1.39
2023-01-20T15:52:19.264Z,1.49
2023-01-20T15:54:45.688Z,1.41
2023-01-20T15:57:16.685Z,1.37
2023-01-20T15:59:45.361Z,1.34
2023-01-20T16:02:23.147Z,1.32
2023-01-20T16:04:50.122Z,1.32
2023-01-20T16:07:18.626Z,1.32
2023-01-20T16:09:46.659Z,1.29
2023-01-20T16:12:17.778Z,1.33
2023-01-20T16:14:45.179Z,1.33
2023-01-20T16:17:20.900Z,1.29
2023-01-20T16:19:48.632Z,1.34
2023-01-20T16:22:15.336Z,1.40
2023-01-20T16:24:42.284Z,1.41
2023-01-20T16:27:20.276Z,1.32
2023-01-20T16:29:47.172Z,1.26
2023-01-20T16:32:16.694Z,1.24
2023-01-20T16:34:44.247Z,1.22
2023-01-20T16:37:14.273Z,1.21
2023-01-20T16:39:40.856Z,1.19
2023-01-20T16:42:11.325Z,1.20
2023-01-20T16:44:38.818Z,1.18
2023-01-20T16:47:06.513Z,1.22
2023-01-20T16:49:33.023Z,1.21
2023-01-20T16:51:59.452Z,1.21
2023-01-20T16:54:25.957Z,1.19
2023-01-20T16:56:52.339Z,1.15
2023-01-20T16:59:18.798Z,1.11
2023-01-20T17:01:47.698Z,1.10
2023-01-20T17:04:14.187Z,1.09
2023-01-20T17:06:41.140Z,1.09
2023-01-20T17:09:07.779Z,1.08
2023-01-20T17:11:37.332Z,1.08
2023-01-20T17:14:06.028Z,1.07
2023-01-20T17:16:32.971Z,1.19
2023-01-20T17:19:00.565Z,1.15
2023-01-20T17:21:29.876Z,1.11
2023-01-20T17:23:59.562Z,1.09
2023-01-20T17:26:26.716Z,1.05
2023-01-20T17:28:55.247Z,1.06
2023-01-20T17:31:22.642Z,1.16
2023-01-20T17:33:50.115Z,1.21
2023-01-20T17:36:16.925Z,1.32
2023-01-20T17:38:44.481Z,1.33
2023-01-20T17:41:12.768Z,1.21
2023-01-20T17:43:42.990Z,1.16
2023-01-20T17:46:12.718Z,1.11
2023-01-20T17:48:39.439Z,1.08
2023-01-20T17:51:13.579Z,1.05
2023-01-20T17:53:40.620Z,1.09
2023-01-20T17:56:12.912Z,1.07
2023-01-20T17:58:41.267Z,1.04
2023-01-20T18:01:17.461Z,1.02
2023-01-20T18:03:44.917Z,0.97
2023-01-20T18:06:13.087Z,0.90
2023-01-20T18:08:40.522Z,0.85
2023-01-20T18:11:13.137Z,0.76
2023-01-20T18:13:39.629Z,0.68
2023-01-20T18:16:12.315Z,0.63
2023-01-20T18:18:40.406Z,0.54
2023-01-20T18:21:17.541Z,0.49
2023-01-20T18:23:45.071Z,0.45
2023-01-20T18:26:14.016Z,0.39
2023-01-20T18:28:41.556Z,0.34
2023-01-20T18:31:13.994Z,0.31
2023-01-20T18:33:44.137Z,0.28
2023-01-20T18:36:16.789Z,0.21
2023-01-20T18:38:43.321Z,0.15
2023-01-20T18:41:11.173Z,0.24
2023-01-20T18:43:38.360Z,0.02
2023-01-20T18:46:05.854Z,-0.06
2023-01-20T18:48:32.393Z,-0.11
2023-01-20T18:51:00.390Z,-0.15
2023-01-20T18:53:29.283Z,-0.20
2023-01-20T18:56:10.621Z,-0.25
2023-01-20T18:58:38.546Z,-0.29
2023-01-20T19:01:11.489Z,-0.35
2023-01-20T19:03:39.517Z,-0.41
2023-01-20T19:06:07.968Z,-0.45
2023-01-20T19:08:34.708Z,-0.46
2023-01-20T19:11:03.319Z,-0.44
2023-01-20T19:13:29.810Z,-0.49
2023-01-20T19:15:56.998Z,-0.54
2023-01-20T19:18:23.591Z,-0.62
2023-01-20T19:20:50.358Z,-0.68
2023-01-20T19:23:17.121Z,-0.70
2023-01-20T19:25:43.795Z,-0.73
2023-01-20T19:28:10.977Z,-0.81
2023-01-20T19:30:41.428Z,-0.79
2023-01-20T19:33:12.039Z,-0.81
2023-01-20T19:35:40.502Z,-0.88
2023-01-20T19:38:08.285Z,-0.91
2023-01-20T19:40:34.899Z,-0.97
2023-01-20T19:43:01.669Z,-0.99
2023-01-20T19:45:40.407Z,-1.01
2023-01-20T19:48:11.481Z,-1.02
2023-01-20T19:50:38.140Z,-1.03
2023-01-20T19:53:04.782Z,-1.04
2023-01-20T19:55:31.200Z,-1.07
2023-01-20T19:57:57.614Z,-1.05
2023-01-20T20:00:24.087Z,-1.18
2023-01-20T20:02:53.683Z,-1.22
2023-01-20T20:05:20.251Z,-1.25
2023-01-20T20:07:47.238Z,-1.24
2023-01-20T20:10:13.898Z,-1.26
2023-01-20T20:12:40.638Z,-1.26
2023-01-20T20:15:07.341Z,-1.31
2023-01-20T20:17:33.760Z,-1.29
2023-01-20T20:20:00.137Z,-1.39
2023-01-20T20:22:27.174Z,-1.43
2023-01-20T20:24:53.582Z,-1.45
2023-01-20T20:27:19.950Z,-1.44
2023-01-20T20:29:46.380Z,-1.46
2023-01-20T20:32:13.513Z,-1.50
2023-01-20T20:34:40.026Z,-1.51
2023-01-20T20:37:06.401Z,-1.52
2023-01-20T20:39:32.822Z,-1.48
2023-01-20T20:41:59.809Z,-1.54
2023-01-20T20:44:26.299Z,-1.51
2023-01-20T20:46:52.700Z,-1.51
2023-01-20T20:49:19.401Z,-1.52
2023-01-20T20:51:45.993Z,-1.52
2023-01-20T20:54:16.940Z,-1.54
2023-01-20T20:56:44.272Z,-1.57
2023-01-20T20:59:10.949Z,-1.61
2023-01-20T21:01:37.631Z,-1.58
2023-01-20T21:04:05.248Z,-1.61
2023-01-20T21:06:32.298Z,-1.66
2023-01-20T21:08:58.929Z,-1.66
2023-01-20T21:11:25.503Z,-1.64
2023-01-20T21:13:52.248Z,-1.65
2023-01-20T21:16:22.671Z,-1.68
2023-01-20T21:18:50.110Z,-1.81
2023-01-20T21:21:19.833Z,-1.89
2023-01-20T21:23:51.247Z,-1.91
2023-01-20T21:26:18.217Z,-1.92
2023-01-20T21:28:45.407Z,-1.88
2023-01-20T21:31:14.941Z,-1.83
2023-01-20T21:33:42.861Z,-1.94
2023-01-20T21:36:12.294Z,-2.02
2023-01-20T21:38:41.372Z,-2.12
2023-01-20T21:41:09.988Z,-2.14
2023-01-20T21:43:57.776Z,-2.21
2023-01-20T21:46:25.307Z,-2.29
2023-01-20T21:49:10.611Z,-2.29
2023-01-20T21:51:55.532Z,-2.26
2023-01-20T21:54:22.082Z,-2.26
2023-01-20T21:56:48.877Z,-2.29
2023-01-20T21:59:15.339Z,-2.27
2023-01-20T22:01:42.580Z,-2.25
2023-01-20T22:04:09.812Z,-2.27
2023-01-20T22:06:36.171Z,-2.27
2023-01-20T22:09:03.011Z,-2.34
2023-01-20T22:11:29.454Z,-2.36
2023-01-20T22:13:56.469Z,-2.39
2023-01-20T22:16:24.412Z,-2.43
2023-01-20T22:18:51.408Z,-2.46
2023-01-20T22:21:18.672Z,-2.48
2023-01-20T22:23:45.281Z,-2.51
2023-01-20T22:26:11.775Z,-2.49
2023-01-20T22:28:39.885Z,-2.57
2023-01-20T22:31:12.566Z,-2.53
2023-01-20T22:33:39.765Z,-2.52
2023-01-20T22:36:06.694Z,-2.54
2023-01-20T22:38:34.059Z,-2.54
2023-01-20T22:41:05.805Z,-2.58
2023-01-20T22:43:33.771Z,-2.61
2023-01-20T22:46:02.206Z,-2.59
2023-01-20T22:48:31.247Z,-2.61
2023-01-20T22:51:09.331Z,-2.69
2023-01-20T22:53:36.376Z,-2.74
2023-01-20T22:56:11.781Z,-2.71
2023-01-20T22:58:39.024Z,-2.69
2023-01-20T23:01:12.253Z,-2.67
2023-01-20T23:03:38.935Z,-2.71
2023-01-20T23:06:05.517Z,-2.70
2023-01-20T23:08:32.744Z,-2.73
2023-01-20T23:11:02.286Z,-2.75
2023-01-20T23:13:29.960Z,-2.74
2023-01-20T23:15:56.946Z,-2.83
2023-01-20T23:18:24.609Z,-2.83
2023-01-20T23:20:52.717Z,-2.85
2023-01-20T23:23:20.996Z,-2.95
2023-01-20T23:25:47.921Z,-2.92
2023-01-20T23:28:15.037Z,-2.96
2023-01-20T23:30:41.552Z,-2.91
2023-01-20T23:33:08.935Z,-2.94
2023-01-20T23:35:38.830Z,-3.01
2023-01-20T23:38:06.731Z,-3.03
2023-01-20T23:40:33.867Z,-3.08
2023-01-20T23:43:00.476Z,-3.12
2023-01-20T23:45:28.802Z,-3.17
2023-01-20T23:47:55.560Z,-3.13
2023-01-20T23:50:22.051Z,-3.17
2023-01-20T23:52:48.483Z,-3.20
2023-01-20T23:55:15.156Z,-3.23
2023-01-20T23:57:41.589Z,-3.15
